Time;durP1;ratioP1;P1;durP2;ratioP2;P2;SDS_P1;SDS_P2;PMS_P1;PMS_P2;Temp;Humidity;BMP_temperature;BMP_pressure;BME280_temperature;BME280_humidity;BME280_pressure;Samples;Min_cycle;Max_cycle;Signal;HPM_P1;HPM_P2
2022/01/02 00:02:12;;;;;;;15.40;5.80;;;10.70;90.20;;;;;;5066757;28;20060;-78
2022/01/02 00:04:45;;;;;;;15.63;5.05;;;10.70;90.40;;;;;;5061975;28;20038;-79
2022/01/02 00:07:14;;;;;;;11.73;5.40;;;10.60;90.50;;;;;;5062990;28;20049;-78
2022/01/02 00:09:44;;;;;;;14.57;5.55;;;10.60;90.60;;;;;;5064045;28;20038;-78
2022/01/02 00:12:15;;;;;;;11.20;5.70;;;10.60;90.70;;;;;;5058944;28;20081;-78
2022/01/02 00:14:47;;;;;;;14.57;5.63;;;10.60;91.00;;;;;;5072650;28;20049;-79
2022/01/02 00:17:18;;;;;;;13.82;5.80;;;10.60;91.30;;;;;;5060898;28;20089;-79
2022/01/02 00:19:52;;;;;;;13.82;5.97;;;10.50;91.60;;;;;;5061355;28;20145;-79
2022/01/02 00:22:28;;;;;;;13.90;6.13;;;10.50;91.90;;;;;;5053476;28;20050;-79
2022/01/02 00:24:56;;;;;;;17.38;5.90;;;10.50;92.00;;;;;;5056277;28;20049;-79
2022/01/02 00:27:24;;;;;;;16.08;6.05;;;10.50;91.90;;;;;;5062906;28;20038;-79
2022/01/02 00:29:52;;;;;;;15.25;6.13;;;10.50;92.40;;;;;;5062755;28;20093;-79
2022/01/02 00:32:21;;;;;;;13.80;5.60;;;10.40;92.70;;;;;;5067478;28;20464;-79
2022/01/02 00:34:53;;;;;;;11.85;5.85;;;10.40;92.90;;;;;;5061351;28;20567;-79
2022/01/02 00:37:20;;;;;;;23.02;6.65;;;10.40;93.00;;;;;;5071251;28;20113;-79
2022/01/02 00:39:47;;;;;;;17.10;6.18;;;10.40;93.00;;;;;;5068431;28;20076;-79
2022/01/02 00:42:25;;;;;;;16.35;6.35;;;10.40;93.10;;;;;;5058570;28;20058;-79
2022/01/02 00:44:58;;;;;;;18.77;6.95;;;10.30;93.30;;;;;;5054493;28;20097;-80
2022/01/02 00:47:27;;;;;;;15.18;6.38;;;10.30;93.40;;;;;;5059496;28;21249;-79
2022/01/02 00:50:03;;;;;;;16.10;6.93;;;10.30;93.60;;;;;;5055249;28;20041;-80
2022/01/02 00:52:30;;;;;;;20.98;7.22;;;10.30;93.70;;;;;;5060576;28;20073;-80
2022/01/02 00:54:57;;;;;;;14.90;7.05;;;10.30;93.70;;;;;;5051110;28;20041;-79
2022/01/02 00:57:33;;;;;;;15.20;6.78;;;10.30;93.80;;;;;;5069978;28;20096;-79
2022/01/02 01:00:04;;;;;;;14.93;6.38;;;10.30;93.70;;;;;;5045466;28;20865;-80
2022/01/02 01:02:47;;;;;;;21.48;7.35;;;10.20;93.90;;;;;;5051396;28;20854;-80
2022/01/02 01:05:23;;;;;;;19.45;7.25;;;10.20;94.00;;;;;;5046134;28;20128;-81
2022/01/02 01:07:53;;;;;;;20.80;7.45;;;10.20;94.20;;;;;;5057812;28;20046;-80
2022/01/02 01:10:22;;;;;;;16.17;6.82;;;10.20;94.40;;;;;;5046284;28;20140;-81
2022/01/02 01:12:54;;;;;;;17.02;7.20;;;10.20;94.50;;;;;;5043406;28;20037;-81
2022/01/02 01:15:23;;;;;;;17.13;7.20;;;10.20;94.50;;;;;;5061563;28;20080;-80
2022/01/02 01:17:55;;;;;;;18.70;7.95;;;10.20;94.70;;;;;;5057884;28;20114;-80
2022/01/02 01:20:26;;;;;;;16.77;7.55;;;10.20;94.80;;;;;;5061485;28;20105;-80
2022/01/02 01:22:53;;;;;;;18.40;7.07;;;10.20;94.90;;;;;;5047125;28;20050;-81
2022/01/02 01:25:21;;;;;;;24.17;6.97;;;10.20;94.90;;;;;;5063098;28;20077;-81
2022/01/02 01:27:50;;;;;;;17.38;6.90;;;10.20;94.90;;;;;;5053572;28;20046;-79
2022/01/02 01:30:21;;;;;;;17.73;6.78;;;10.20;94.90;;;;;;5043946;28;20965;-80
2022/01/02 01:32:56;;;;;;;20.98;7.05;;;10.30;94.90;;;;;;5049683;28;20887;-80
2022/01/02 01:35:23;;;;;;;17.92;6.90;;;10.30;94.90;;;;;;5050038;28;20079;-80
2022/01/02 01:37:50;;;;;;;18.85;7.25;;;10.30;94.70;;;;;;5045679;28;20049;-80
2022/01/02 01:40:18;;;;;;;22.10;7.22;;;10.30;94.90;;;;;;5053624;28;20137;-79
2022/01/02 01:42:56;;;;;;;19.02;6.75;;;10.30;94.90;;;;;;5041514;28;20820;-80
2022/01/02 01:47:54;;;;;;;19.15;6.72;;;10.30;95.20;;;;;;5053319;28;20045;-80
2022/01/02 01:50:25;;;;;;;21.23;6.88;;;10.30;95.20;;;;;;5052170;28;20061;-79
2022/01/02 01:52:52;;;;;;;23.52;6.90;;;10.30;95.30;;;;;;5045894;28;20145;-79
2022/01/02 01:55:19;;;;;;;19.60;6.22;;;10.30;95.30;;;;;;5043347;28;20148;-80
2022/01/02 01:57:51;;;;;;;22.13;7.50;;;10.40;95.20;;;;;;5048263;28;20813;-79
2022/01/02 02:00:21;;;;;;;19.27;7.20;;;10.40;95.20;;;;;;5043185;28;20062;-80
2022/01/02 02:02:48;;;;;;;25.98;6.70;;;10.40;95.30;;;;;;5038876;28;20065;-79
2022/01/02 02:05:15;;;;;;;17.30;6.15;;;10.40;95.40;;;;;;5041968;28;20050;-80
2022/01/02 02:07:45;;;;;;;23.63;6.18;;;10.40;95.50;;;;;;5046945;28;20105;-79
2022/01/02 02:10:23;;;;;;;19.45;6.20;;;10.50;95.30;;;;;;5046510;28;20045;-80
2022/01/02 02:12:53;;;;;;;20.50;6.15;;;10.50;95.20;;;;;;5047611;28;20049;-80
2022/01/02 02:15:21;;;;;;;24.92;6.65;;;10.60;95.10;;;;;;5044760;28;20053;-80
2022/01/02 02:17:50;;;;;;;28.58;6.25;;;10.50;95.10;;;;;;5042707;28;20050;-80
2022/01/02 02:20:18;;;;;;;19.08;6.00;;;10.70;95.20;;;;;;5047079;28;20055;-80
2022/01/02 02:22:48;;;;;;;22.33;5.88;;;10.80;94.70;;;;;;5040371;28;20741;-79
2022/01/02 02:25:17;;;;;;;25.65;5.50;;;10.80;94.70;;;;;;5046718;28;20132;-80
2022/01/02 02:27:55;;;;;;;17.55;5.18;;;10.90;94.60;;;;;;5051903;28;20562;-80
2022/01/02 02:30:24;;;;;;;13.80;4.82;;;10.90;94.50;;;;;;5041085;28;20147;-79
2022/01/02 02:32:54;;;;;;;16.35;4.65;;;10.90;94.70;;;;;;5044839;28;20155;-79
2022/01/02 02:35:21;;;;;;;20.65;5.07;;;11.10;93.90;;;;;;5048440;28;20913;-80
2022/01/02 02:37:48;;;;;;;33.58;5.53;;;11.10;93.80;;;;;;5049333;28;20101;-80
2022/01/02 02:40:20;;;;;;;14.10;4.72;;;11.10;94.00;;;;;;5037566;28;20077;-79
2022/01/02 02:51:03;;;;;;;17.73;4.63;;;11.10;93.60;;;;;;5042291;28;20049;-80
2022/01/02 02:53:30;;;;;;;15.77;4.75;;;11.10;93.60;;;;;;5039708;28;20053;-80
2022/01/02 02:55:58;;;;;;;19.50;5.00;;;11.10;93.60;;;;;;5042204;28;20046;-78
2022/01/02 02:58:49;;;;;;;14.23;4.20;;;11.20;93.30;;;;;;5042993;28;20048;-80
2022/01/02 03:01:16;;;;;;;13.77;4.00;;;11.20;93.10;;;;;;5043195;28;20145;-80
2022/01/02 03:03:44;;;;;;;20.95;3.90;;;11.20;93.00;;;;;;5043127;28;20051;-79
2022/01/02 03:06:12;;;;;;;17.98;4.05;;;11.30;93.00;;;;;;5049376;28;20102;-78
2022/01/02 03:08:41;;;;;;;11.85;3.85;;;11.30;93.20;;;;;;5062773;28;20101;-80
2022/01/02 03:11:13;;;;;;;22.80;4.03;;;11.30;93.20;;;;;;5042772;28;20116;-79
2022/01/02 03:13:40;;;;;;;13.98;3.88;;;11.30;93.20;;;;;;5047315;28;21017;-80
2022/01/02 03:16:09;;;;;;;18.23;4.18;;;11.30;93.20;;;;;;5048775;28;20053;-80
2022/01/02 03:18:40;;;;;;;16.30;4.30;;;11.30;93.30;;;;;;5040211;28;20045;-80
2022/01/02 03:21:10;;;;;;;15.98;3.80;;;11.30;93.50;;;;;;5041576;28;20858;-80
2022/01/02 03:23:40;;;;;;;19.38;4.07;;;11.30;93.20;;;;;;5038625;28;20957;-80
2022/01/02 03:26:10;;;;;;;14.40;4.15;;;11.40;92.90;;;;;;5049048;28;20144;-79
2022/01/02 03:28:44;;;;;;;21.33;4.22;;;11.50;92.30;;;;;;5043737;28;20077;-79
2022/01/02 03:31:14;;;;;;;17.05;4.18;;;11.50;92.20;;;;;;5055374;28;20071;-79
2022/01/02 03:33:43;;;;;;;16.05;4.35;;;11.60;91.60;;;;;;5051222;28;20054;-79
2022/01/02 03:36:10;;;;;;;20.20;4.22;;;11.60;91.60;;;;;;5048911;28;20053;-79
2022/01/02 03:38:40;;;;;;;19.35;4.05;;;11.60;91.60;;;;;;5046146;28;20046;-79
2022/01/02 03:41:09;;;;;;;20.58;4.63;;;11.60;91.30;;;;;;5044883;28;20132;-79
2022/01/02 03:43:36;;;;;;;19.55;4.18;;;11.60;91.40;;;;;;5044805;28;20086;-79
2022/01/02 03:46:06;;;;;;;16.15;3.97;;;11.60;91.60;;;;;;5044553;28;20057;-79
2022/01/02 03:48:34;;;;;;;16.30;4.13;;;11.50;92.00;;;;;;5055928;28;20045;-80
2022/01/02 03:51:04;;;;;;;18.77;4.38;;;11.60;91.80;;;;;;5050329;28;20045;-79
2022/01/02 03:53:31;;;;;;;15.35;3.78;;;11.50;92.30;;;;;;5043977;28;20133;-78
2022/01/02 03:55:58;;;;;;;13.30;3.83;;;11.50;92.20;;;;;;5051993;28;20034;-79
2022/01/02 03:58:28;;;;;;;16.08;4.05;;;11.50;92.30;;;;;;5044895;28;20049;-78
2022/01/02 04:00:55;;;;;;;19.83;4.10;;;11.60;91.30;;;;;;5034722;28;20096;-79
2022/01/02 04:03:24;;;;;;;14.52;3.95;;;11.60;91.50;;;;;;5038637;28;20054;-79
2022/01/02 04:05:53;;;;;;;14.15;3.55;;;11.50;92.00;;;;;;5043189;28;20059;-79
2022/01/02 04:08:20;;;;;;;13.23;3.55;;;11.50;92.40;;;;;;5047116;28;20041;-78
2022/01/02 04:10:47;;;;;;;12.05;3.35;;;11.60;92.20;;;;;;5042620;28;20049;-78
2022/01/02 04:13:13;;;;;;;14.80;3.60;;;11.60;92.30;;;;;;5043585;28;20864;-77
2022/01/02 04:15:40;;;;;;;12.25;3.50;;;11.60;92.20;;;;;;5045093;28;20042;-79
2022/01/02 04:18:09;;;;;;;16.83;3.92;;;11.60;92.10;;;;;;5045707;28;20046;-78
2022/01/02 04:20:36;;;;;;;14.73;2.85;;;11.60;92.30;;;;;;5036555;28;20065;-79
2022/01/02 04:23:05;;;;;;;16.20;3.47;;;11.70;92.20;;;;;;5036543;28;20053;-79
2022/01/02 04:25:31;;;;;;;13.05;3.35;;;11.70;92.20;;;;;;5043910;28;20065;-80
2022/01/02 04:27:58;;;;;;;12.25;3.25;;;11.80;91.90;;;;;;5038337;28;20048;-80
2022/01/02 04:30:26;;;;;;;16.70;3.80;;;11.70;92.20;;;;;;5040466;28;20045;-80
2022/01/02 04:32:53;;;;;;;16.77;3.65;;;11.60;92.70;;;;;;5032772;28;20050;-79
2022/01/02 04:35:19;;;;;;;12.85;3.65;;;11.50;93.10;;;;;;5037224;28;20500;-80
2022/01/02 04:37:47;;;;;;;19.38;4.20;;;11.50;93.10;;;;;;5048058;28;20512;-80
2022/01/02 04:40:13;;;;;;;15.30;4.15;;;11.50;93.20;;;;;;5039841;28;20488;-80
2022/01/02 04:42:40;;;;;;;11.75;3.67;;;11.40;93.20;;;;;;5030921;28;20068;-80
2022/01/02 04:45:08;;;;;;;17.58;4.50;;;11.40;93.10;;;;;;5035729;28;20096;-80
2022/01/02 04:47:35;;;;;;;14.48;3.88;;;11.40;93.00;;;;;;5038155;28;20778;-80
2022/01/02 04:50:02;;;;;;;19.35;4.00;;;11.40;93.30;;;;;;5039316;28;20065;-80
2022/01/02 04:52:29;;;;;;;20.88;4.38;;;11.40;93.30;;;;;;5036511;28;20053;-80
2022/01/02 04:54:56;;;;;;;20.50;4.40;;;11.30;93.50;;;;;;5033940;28;20054;-80
2022/01/02 04:57:22;;;;;;;24.40;5.03;;;11.30;93.50;;;;;;5031651;28;20058;-80
2022/01/02 04:59:49;;;;;;;18.98;4.97;;;11.30;93.70;;;;;;5042299;28;20881;-80
2022/01/02 05:02:16;;;;;;;16.48;4.28;;;11.30;94.00;;;;;;5043382;28;20112;-80
2022/01/02 05:04:43;;;;;;;19.63;4.53;;;11.20;94.00;;;;;;5038547;28;20049;-80
2022/01/02 05:07:12;;;;;;;16.08;3.83;;;11.20;94.10;;;;;;5036553;28;20046;-80
2022/01/02 05:09:39;;;;;;;16.23;3.70;;;11.20;94.20;;;;;;5037805;28;20053;-80
2022/01/02 05:12:09;;;;;;;13.55;3.88;;;11.20;93.70;;;;;;5030727;28;21167;-80
2022/01/02 05:14:36;;;;;;;15.25;4.22;;;11.20;93.50;;;;;;5040312;28;20062;-80
2022/01/02 05:17:03;;;;;;;11.00;4.10;;;11.20;93.70;;;;;;5036880;28;20050;-80
2022/01/02 05:19:30;;;;;;;16.33;4.15;;;11.20;93.70;;;;;;5033965;28;20049;-80
2022/01/02 05:22:02;;;;;;;15.15;4.28;;;11.20;93.60;;;;;;5039130;28;20081;-80
2022/01/02 05:24:29;;;;;;;12.38;3.95;;;11.20;93.30;;;;;;5037739;28;20050;-80
2022/01/02 05:26:56;;;;;;;10.30;3.45;;;11.20;93.30;;;;;;5031506;28;20093;-81
2022/01/02 05:29:23;;;;;;;14.65;4.10;;;11.20;93.20;;;;;;5036943;28;20635;-80
2022/01/02 05:31:50;;;;;;;14.02;4.03;;;11.20;93.20;;;;;;5036777;28;20046;-80
2022/01/02 05:34:17;;;;;;;12.43;4.40;;;11.10;93.50;;;;;;5037551;28;20136;-80
2022/01/02 05:36:48;;;;;;;21.25;4.32;;;11.10;93.60;;;;;;5038972;28;20496;-80
2022/01/02 05:39:18;;;;;;;13.52;3.97;;;11.10;93.70;;;;;;5043405;28;20053;-80
2022/01/02 05:41:46;;;;;;;14.20;4.28;;;11.10;93.60;;;;;;5032454;28;20050;-80
2022/01/02 05:44:13;;;;;;;12.93;4.38;;;11.00;93.50;;;;;;5042139;28;20041;-80
2022/01/02 05:46:42;;;;;;;22.00;4.97;;;11.00;93.80;;;;;;5047621;28;20064;-80
2022/01/02 05:49:10;;;;;;;16.70;5.15;;;11.00;93.80;;;;;;5045355;28;20053;-81
2022/01/02 05:51:40;;;;;;;9.02;4.10;;;11.00;93.60;;;;;;5043693;28;20050;-80
2022/01/02 05:54:07;;;;;;;17.50;4.63;;;11.00;93.40;;;;;;5034452;28;20591;-80
2022/01/02 05:56:34;;;;;;;9.93;4.05;;;11.00;93.50;;;;;;5036608;28;20045;-80
2022/01/02 05:59:10;;;;;;;14.80;4.65;;;11.00;93.30;;;;;;5036588;28;20069;-79
2022/01/02 06:01:38;;;;;;;12.77;4.15;;;11.00;92.80;;;;;;5042444;28;20508;-79
2022/01/02 06:04:05;;;;;;;14.68;4.30;;;11.00;92.30;;;;;;5035937;28;20058;-80
2022/01/02 06:06:32;;;;;;;13.73;4.10;;;11.00;92.20;;;;;;5059584;28;20042;-80
2022/01/02 06:08:59;;;;;;;12.70;4.28;;;11.00;92.30;;;;;;5036979;28;20050;-80
2022/01/02 06:11:27;;;;;;;9.65;4.07;;;11.00;92.10;;;;;;5033811;28;20061;-79
2022/01/02 06:13:55;;;;;;;12.95;3.95;;;11.00;92.60;;;;;;5034425;28;20092;-80
2022/01/02 06:16:32;;;;;;;13.35;4.07;;;10.90;92.80;;;;;;5036952;28;20866;-79
2022/01/02 06:19:04;;;;;;;16.30;4.00;;;10.90;92.70;;;;;;5038265;28;20112;-80
2022/01/02 06:21:31;;;;;;;18.80;4.37;;;10.90;93.10;;;;;;5036825;28;20101;-80
2022/01/02 06:23:57;;;;;;;11.25;3.95;;;10.80;93.00;;;;;;5046143;28;20096;-79
2022/01/02 06:26:24;;;;;;;15.85;4.03;;;10.80;93.00;;;;;;5036769;28;20070;-79
2022/01/02 06:28:52;;;;;;;14.48;4.60;;;10.80;92.80;;;;;;5037612;28;20996;-80
2022/01/02 06:31:18;;;;;;;14.00;4.22;;;10.80;92.90;;;;;;5049369;28;20022;-80
2022/01/02 06:33:47;;;;;;;14.25;4.13;;;10.80;93.10;;;;;;5035357;28;20496;-79
2022/01/02 06:36:14;;;;;;;12.45;3.65;;;10.80;92.70;;;;;;5042268;28;20194;-79
2022/01/02 06:38:41;;;;;;;11.52;4.22;;;10.80;92.50;;;;;;5040531;28;20092;-79
2022/01/02 06:41:12;;;;;;;10.77;3.78;;;10.80;92.60;;;;;;5040845;28;20034;-79
2022/01/02 06:43:40;;;;;;;17.75;4.20;;;10.80;92.10;;;;;;5041247;28;20053;-80
2022/01/02 06:46:10;;;;;;;15.07;4.75;;;10.80;92.20;;;;;;5036617;28;20049;-80
2022/01/02 06:48:42;;;;;;;17.52;3.90;;;10.90;91.10;;;;;;5040730;28;20112;-80
2022/01/02 06:51:09;;;;;;;16.83;4.35;;;10.90;91.60;;;;;;5045559;28;20055;-80
2022/01/02 06:53:39;;;;;;;15.60;4.07;;;10.90;91.30;;;;;;5034560;28;20057;-80
2022/01/02 06:56:06;;;;;;;13.02;4.13;;;10.80;91.70;;;;;;5038449;28;20046;-80
2022/01/02 06:58:39;;;;;;;13.25;3.55;;;10.80;91.60;;;;;;5041389;28;20046;-80
2022/01/02 07:01:06;;;;;;;13.45;3.78;;;10.80;91.70;;;;;;5038645;28;20157;-80
2022/01/02 07:03:34;;;;;;;11.25;3.45;;;10.80;92.00;;;;;;5044788;28;20049;-79
2022/01/02 07:06:00;;;;;;;9.13;3.95;;;10.70;92.70;;;;;;5035284;28;20566;-80
2022/01/02 07:08:29;;;;;;;13.60;3.80;;;10.70;92.70;;;;;;5050169;28;20073;-80
2022/01/02 07:10:56;;;;;;;13.57;3.85;;;10.70;92.80;;;;;;5037823;28;20060;-79
2022/01/02 07:13:30;;;;;;;15.98;3.95;;;10.70;92.90;;;;;;5037297;28;20917;-80
2022/01/02 07:15:56;;;;;;;12.27;3.33;;;10.70;92.50;;;;;;5036176;28;20221;-80
2022/01/02 07:18:26;;;;;;;12.80;3.67;;;10.70;92.80;;;;;;5042652;28;20546;-80
2022/01/02 07:20:53;;;;;;;12.77;4.22;;;10.70;92.10;;;;;;5043522;28;20060;-80
2022/01/02 07:23:19;;;;;;;12.48;4.10;;;10.70;92.10;;;;;;5035162;28;20057;-80
2022/01/02 07:25:46;;;;;;;11.20;3.72;;;10.70;92.30;;;;;;5038471;28;20065;-80
2022/01/02 07:28:12;;;;;;;11.63;3.70;;;10.70;92.10;;;;;;5032224;28;20060;-80
2022/01/02 07:30:39;;;;;;;9.45;3.45;;;10.70;92.20;;;;;;5038544;28;20049;-81
2022/01/02 07:33:06;;;;;;;8.20;3.58;;;10.70;92.40;;;;;;5043464;28;20076;-81
2022/01/02 07:35:33;;;;;;;16.70;4.03;;;10.60;92.80;;;;;;5041618;28;20393;-81
2022/01/02 07:38:19;;;;;;;10.63;3.90;;;10.60;92.80;;;;;;5048196;28;20050;-81
2022/01/02 07:40:47;;;;;;;10.88;3.78;;;10.60;93.20;;;;;;5040967;28;20136;-81
2022/01/02 07:43:13;;;;;;;11.40;3.08;;;10.60;93.40;;;;;;5051076;28;20085;-81
2022/01/02 07:45:40;;;;;;;17.20;4.28;;;10.50;93.70;;;;;;5042741;28;20080;-81
2022/01/02 07:48:08;;;;;;;13.77;4.20;;;10.50;93.90;;;;;;5046168;28;20128;-79
2022/01/02 07:50:42;;;;;;;12.40;4.10;;;10.50;94.00;;;;;;5039066;28;20842;-79
2022/01/02 07:53:09;;;;;;;10.80;3.80;;;10.50;94.00;;;;;;5041191;28;20054;-79
2022/01/02 07:55:40;;;;;;;14.40;4.20;;;10.50;94.30;;;;;;5046703;28;20132;-79
2022/01/02 07:58:13;;;;;;;11.30;3.78;;;10.50;94.20;;;;;;5038251;28;20858;-79
2022/01/02 08:00:40;;;;;;;16.70;3.95;;;10.50;94.40;;;;;;5044141;28;20151;-79
2022/01/02 08:03:09;;;;;;;13.85;4.05;;;10.50;94.10;;;;;;5037759;28;20204;-79
2022/01/02 08:05:39;;;;;;;15.73;4.80;;;10.40;94.30;;;;;;5035652;28;20057;-78
2022/01/02 08:08:06;;;;;;;13.68;4.20;;;10.40;94.30;;;;;;5031609;28;20056;-78
2022/01/02 08:10:40;;;;;;;13.02;3.90;;;10.40;94.60;;;;;;5033180;28;20061;-78
2022/01/02 08:13:09;;;;;;;16.10;3.97;;;10.40;94.90;;;;;;5032731;28;20081;-78
2022/01/02 08:15:39;;;;;;;16.40;4.20;;;10.40;94.90;;;;;;5041950;28;20492;-79
2022/01/02 08:18:06;;;;;;;12.15;4.03;;;10.40;95.10;;;;;;5039738;28;20050;-79
2022/01/02 08:20:35;;;;;;;13.00;4.43;;;10.40;95.20;;;;;;5039075;28;20100;-79
2022/01/02 08:23:01;;;;;;;18.70;4.50;;;10.40;95.20;;;;;;5034415;28;20064;-78
2022/01/02 08:25:28;;;;;;;10.63;3.75;;;10.40;95.10;;;;;;5037954;28;20484;-79
2022/01/02 08:27:55;;;;;;;16.20;4.20;;;10.40;94.90;;;;;;5042555;28;20509;-78
2022/01/02 08:30:21;;;;;;;12.80;4.55;;;10.40;95.00;;;;;;5042830;28;20056;-78
2022/01/02 08:32:48;;;;;;;9.95;4.03;;;10.40;95.20;;;;;;5041091;28;20045;-78
2022/01/02 08:35:15;;;;;;;13.93;4.60;;;10.40;95.20;;;;;;5039777;28;20056;-78
2022/01/02 08:37:41;;;;;;;16.00;4.40;;;10.40;95.10;;;;;;5041356;28;20076;-78
2022/01/02 08:40:08;;;;;;;12.95;4.70;;;10.40;94.80;;;;;;5040689;28;20064;-78
2022/01/02 08:42:35;;;;;;;14.13;4.30;;;10.40;95.00;;;;;;5036561;28;20845;-78
2022/01/02 08:45:04;;;;;;;15.70;4.72;;;10.40;95.20;;;;;;5049859;28;20513;-78
2022/01/02 08:47:31;;;;;;;12.82;4.85;;;10.40;95.20;;;;;;5033579;28;20101;-78
2022/01/02 08:49:58;;;;;;;17.80;4.78;;;10.40;95.30;;;;;;5041722;28;20050;-78
2022/01/02 08:52:25;;;;;;;12.55;4.22;;;10.40;95.20;;;;;;5038210;28;20987;-78
2022/01/02 08:54:51;;;;;;;11.50;3.97;;;10.40;94.70;;;;;;5035686;28;20056;-78
2022/01/02 08:57:18;;;;;;;10.85;3.83;;;10.40;94.60;;;;;;5034088;28;20050;-77
2022/01/02 08:59:45;;;;;;;7.38;3.72;;;10.40;94.40;;;;;;5035263;28;20136;-77
2022/01/02 09:02:15;;;;;;;11.00;3.70;;;10.40;93.60;;;;;;5040711;28;20065;-77
2022/01/02 09:04:41;;;;;;;11.25;4.00;;;10.40;93.10;;;;;;5038071;28;20057;-77
2022/01/02 09:07:11;;;;;;;13.52;3.85;;;10.40;93.20;;;;;;5032334;28;20127;-77
2022/01/02 09:09:40;;;;;;;11.85;3.83;;;10.30;93.50;;;;;;5034128;28;20060;-77
2022/01/02 09:12:12;;;;;;;12.90;4.38;;;10.30;93.20;;;;;;5043871;28;20503;-77
2022/01/02 09:14:38;;;;;;;9.10;4.05;;;10.40;93.20;;;;;;5039380;28;20079;-77
2022/01/02 09:17:05;;;;;;;9.93;3.88;;;10.30;93.50;;;;;;5035401;28;20046;-77
2022/01/02 09:19:31;;;;;;;10.88;4.55;;;10.30;93.70;;;;;;5036054;28;20065;-78
2022/01/02 09:21:59;;;;;;;12.52;4.20;;;10.40;92.50;;;;;;5040199;28;20100;-77
2022/01/02 09:24:25;;;;;;;11.73;4.30;;;10.30;92.70;;;;;;5057668;28;20053;-78
2022/01/02 09:26:52;;;;;;;10.73;4.53;;;10.30;92.30;;;;;;5038024;28;20138;-77
2022/01/02 09:29:19;;;;;;;9.30;4.43;;;10.30;93.30;;;;;;5034312;28;20053;-77
2022/01/02 09:31:49;;;;;;;11.70;4.55;;;10.30;93.40;;;;;;5038435;28;20088;-78
2022/01/02 09:34:19;;;;;;;14.43;4.95;;;10.30;92.80;;;;;;5038436;28;20773;-78
2022/01/02 09:36:45;;;;;;;13.85;4.68;;;10.30;93.10;;;;;;5034357;28;20058;-78
2022/01/02 09:39:12;;;;;;;14.32;5.07;;;10.30;92.70;;;;;;5043051;28;20050;-78
2022/01/02 09:41:40;;;;;;;10.52;4.43;;;10.40;92.80;;;;;;5031951;28;20583;-78
2022/01/02 09:44:10;;;;;;;14.20;5.20;;;10.50;91.90;;;;;;5035659;28;20068;-78
2022/01/02 09:46:41;;;;;;;7.75;3.88;;;11.00;91.90;;;;;;5035152;28;20056;-77
2022/01/02 09:49:10;;;;;;;8.90;4.23;;;11.40;89.90;;;;;;5050616;28;20412;-78
2022/01/02 09:51:42;;;;;;;7.80;3.47;;;11.70;88.70;;;;;;5047416;28;20138;-78
2022/01/02 09:54:10;;;;;;;10.88;4.55;;;11.90;86.70;;;;;;5040528;28;20045;-78
2022/01/02 09:56:44;;;;;;;13.05;4.32;;;12.00;87.80;;;;;;5041604;28;20056;-77
2022/01/02 09:59:14;;;;;;;15.52;4.78;;;11.90;86.80;;;;;;5039287;28;20132;-78
2022/01/02 10:01:42;;;;;;;14.32;5.15;;;11.90;86.10;;;;;;5039246;28;20133;-79
2022/01/02 10:04:09;;;;;;;13.32;4.38;;;11.70;87.20;;;;;;5036873;28;20546;-79
2022/01/02 10:06:48;;;;;;;10.43;4.43;;;11.40;86.90;;;;;;5059384;28;20750;-78
2022/01/02 10:09:32;;;;;;;9.05;4.10;;;11.30;88.60;;;;;;5047550;28;20057;-79
2022/01/02 10:12:25;;;;;;;13.93;4.70;;;11.20;88.60;;;;;;5040910;28;20064;-78
2022/01/02 10:15:17;;;;;;;14.25;4.65;;;11.20;88.90;;;;;;5049145;28;20169;-77
2022/01/02 10:18:09;;;;;;;12.75;4.68;;;11.10;89.40;;;;;;5041909;28;20046;-77
2022/01/02 10:20:41;;;;;;;9.60;4.30;;;11.20;88.50;;;;;;5040820;28;20050;-78
2022/01/02 10:23:23;;;;;;;12.95;4.50;;;11.20;87.30;;;;;;5048783;28;20049;-78
2022/01/02 10:25:58;;;;;;;14.30;4.43;;;11.30;88.70;;;;;;5042000;28;20049;-78
2022/01/02 10:28:41;;;;;;;11.75;4.60;;;11.70;87.70;;;;;;5045905;28;20137;-79
2022/01/02 10:31:15;;;;;;;9.55;3.95;;;12.20;85.70;;;;;;5048796;28;20855;-79
2022/01/02 10:33:46;;;;;;;9.48;4.35;;;12.30;85.30;;;;;;5049990;28;20051;-77
2022/01/02 10:36:30;;;;;;;10.07;4.40;;;11.90;85.20;;;;;;5036185;28;20097;-79
2022/01/02 10:39:08;;;;;;;8.88;4.25;;;11.70;85.70;;;;;;5050030;28;20044;-78
2022/01/02 10:41:51;;;;;;;8.93;4.10;;;11.60;85.80;;;;;;5053866;28;20521;-78
2022/01/02 10:44:33;;;;;;;11.73;4.28;;;11.50;87.10;;;;;;5050559;28;20912;-78
2022/01/02 10:47:21;;;;;;;16.90;4.75;;;11.40;87.10;;;;;;5055199;28;20049;-79
2022/01/02 10:50:05;;;;;;;13.38;4.40;;;11.40;87.90;;;;;;5066679;28;20123;-79
2022/01/02 10:52:40;;;;;;;13.60;4.70;;;11.40;87.60;;;;;;5051949;28;20046;-77
2022/01/02 10:55:17;;;;;;;11.32;4.75;;;11.40;87.70;;;;;;5059523;28;20038;-78
2022/01/02 10:57:47;;;;;;;16.13;4.28;;;11.40;87.70;;;;;;5055189;28;20069;-77
2022/01/02 11:00:16;;;;;;;12.43;4.57;;;11.40;87.60;;;;;;5055051;28;20062;-79
2022/01/02 11:02:44;;;;;;;13.55;4.18;;;11.40;87.60;;;;;;5075017;28;20863;-79
2022/01/02 11:05:15;;;;;;;17.48;4.80;;;11.40;88.20;;;;;;5050085;28;20050;-78
2022/01/02 11:07:58;;;;;;;16.05;4.45;;;11.30;88.70;;;;;;5056534;28;20049;-78
2022/01/02 11:10:25;;;;;;;16.75;4.25;;;11.30;88.90;;;;;;5058369;28;20081;-79
2022/01/02 11:12:53;;;;;;;15.50;4.43;;;11.30;88.60;;;;;;5044190;28;20054;-78
2022/01/02 11:15:27;;;;;;;14.23;4.30;;;11.30;89.20;;;;;;5049194;28;20125;-78
2022/01/02 11:17:56;;;;;;;14.88;4.68;;;11.30;88.90;;;;;;5051544;28;20050;-78
2022/01/02 11:20:32;;;;;;;14.05;4.40;;;11.30;88.80;;;;;;5048262;28;20086;-78
2022/01/02 11:23:14;;;;;;;12.23;4.47;;;11.30;88.90;;;;;;5051308;28;20050;-77
2022/01/02 11:26:08;;;;;;;16.60;3.95;;;11.30;89.40;;;;;;5047457;28;20026;-79
2022/01/02 11:29:02;;;;;;;14.00;4.35;;;11.20;89.70;;;;;;5068376;28;21142;-78
2022/01/02 11:31:56;;;;;;;14.00;4.07;;;11.30;89.40;;;;;;5066040;28;20050;-78
2022/01/02 11:34:56;;;;;;;12.85;4.57;;;11.20;89.90;;;;;;5054836;28;20029;-79
2022/01/02 11:37:38;;;;;;;;;;;11.20;89.40;;;;;;5054134;28;20041;-78
2022/01/02 11:43:52;;;;;;;16.48;4.30;;;11.30;89.20;;;;;;5049719;28;20045;-78
2022/01/02 11:46:28;;;;;;;16.77;4.70;;;11.40;89.90;;;;;;5048144;28;20057;-79
2022/01/02 11:49:04;;;;;;;13.52;4.00;;;11.40;89.10;;;;;;5056617;28;20050;-78
2022/01/02 11:51:50;;;;;;;14.88;4.38;;;11.40;89.20;;;;;;5062516;28;20532;-79
2022/01/02 11:54:32;;;;;;;17.80;4.88;;;11.40;88.90;;;;;;5060099;28;20037;-79
2022/01/02 11:57:15;;;;;;;18.38;4.45;;;11.40;88.60;;;;;;5053598;28;20049;-78
2022/01/02 11:59:47;;;;;;;16.30;4.07;;;11.40;89.20;;;;;;5052068;28;20940;-78
2022/01/02 12:02:31;;;;;;;17.05;3.72;;;11.50;88.40;;;;;;5055890;28;20112;-78
2022/01/02 12:05:25;;;;;;;13.73;4.00;;;11.50;88.40;;;;;;5041631;28;20046;-78
2022/01/02 12:08:10;;;;;;;16.42;3.80;;;11.60;88.80;;;;;;5056443;28;20118;-80
2022/01/02 12:10:47;;;;;;;17.65;3.75;;;11.60;87.90;;;;;;5054998;28;20050;-80
2022/01/02 12:13:35;;;;;;;16.02;3.75;;;11.70;87.90;;;;;;5058199;28;20041;-78
2022/01/02 12:16:48;;;;;;;18.50;3.88;;;11.70;87.30;;;;;;5021656;28;20089;-79
2022/01/02 12:20:13;;;;;;;20.30;3.58;;;11.70;88.00;;;;;;4994552;28;20063;-78
2022/01/02 12:22:54;;;;;;;18.10;4.28;;;11.70;87.80;;;;;;5022469;28;20043;-78
2022/01/02 12:25:26;;;;;;;26.70;5.03;;;11.70;87.20;;;;;;5041971;28;20082;-79
2022/01/02 12:27:55;;;;;;;24.83;4.75;;;11.70;87.00;;;;;;5022650;28;20043;-78
2022/01/02 12:30:45;;;;;;;21.13;4.20;;;11.80;86.80;;;;;;5019658;28;20063;-79
2022/01/02 12:33:27;;;;;;;20.55;3.42;;;11.80;86.70;;;;;;5007020;28;20105;-80
2022/01/02 12:35:54;;;;;;;22.33;3.28;;;11.80;87.70;;;;;;5058623;28;20069;-79
2022/01/02 12:38:21;;;;;;;21.17;3.92;;;11.90;87.30;;;;;;5047066;28;20084;-80
2022/01/02 12:40:49;;;;;;;18.40;3.38;;;11.90;86.50;;;;;;5056274;28;20042;-78
2022/01/02 12:43:24;;;;;;;16.13;3.60;;;12.00;86.40;;;;;;5060499;28;20050;-79
2022/01/02 12:45:54;;;;;;;17.80;3.30;;;11.90;85.70;;;;;;5058436;28;20049;-80
2022/01/02 12:48:34;;;;;;;16.65;3.28;;;11.90;85.50;;;;;;5051770;28;20120;-78
2022/01/02 12:51:12;;;;;;;14.57;3.03;;;11.90;84.20;;;;;;5061610;28;20045;-79
2022/01/02 12:53:41;;;;;;;15.30;2.65;;;11.90;84.70;;;;;;5058628;28;20108;-80
2022/01/02 12:56:12;;;;;;;20.73;3.15;;;11.90;84.70;;;;;;5072781;28;20603;-79
2022/01/02 12:58:38;;;;;;;17.77;2.60;;;12.00;83.70;;;;;;5107445;28;20036;-79
2022/01/02 13:01:06;;;;;;;16.63;3.20;;;12.00;83.50;;;;;;5110914;28;20033;-80
2022/01/02 13:03:36;;;;;;;13.13;2.85;;;12.00;83.90;;;;;;5116282;28;20044;-79
2022/01/02 13:06:04;;;;;;;20.42;2.95;;;12.00;82.40;;;;;;5101683;28;20040;-80
2022/01/02 13:08:31;;;;;;;16.67;2.95;;;12.00;82.70;;;;;;5101968;28;20120;-81
2022/01/02 13:11:09;;;;;;;16.98;3.35;;;12.00;83.00;;;;;;5094385;28;20080;-80
2022/01/02 13:13:36;;;;;;;21.85;3.10;;;11.90;82.40;;;;;;5090126;28;20809;-80